Time;durP1;ratioP1;P1;durP2;ratioP2;P2;SDS_P1;SDS_P2;PMS_P1;PMS_P2;Temp;Humidity;BMP_temperature;BMP_pressure;BME280_temperature;BME280_humidity;BME280_pressure;Samples;Min_cycle;Max_cycle;Signal;HPM_P1;HPM_P2
2022/09/21 00:01:51;;;;;;;11.35;6.40;;;10.30;99.90;;;;;;5045454;28;20269;-81
2022/09/21 00:04:18;;;;;;;10.70;6.50;;;10.40;99.90;;;;;;5041642;28;20290;-80
2022/09/21 00:06:45;;;;;;;13.85;7.32;;;10.40;99.90;;;;;;5046188;28;20334;-80
2022/09/21 00:09:14;;;;;;;16.25;7.93;;;10.40;99.90;;;;;;5050228;28;20203;-81
2022/09/21 00:11:41;;;;;;;12.38;8.35;;;10.40;99.90;;;;;;5039440;28;20204;-80
2022/09/21 00:14:11;;;;;;;17.50;7.55;;;10.30;99.90;;;;;;5046220;28;20216;-80
2022/09/21 00:16:38;;;;;;;14.45;7.85;;;10.30;99.90;;;;;;5042383;28;20242;-81
2022/09/21 00:19:06;;;;;;;11.85;7.25;;;10.20;99.90;;;;;;5050988;28;20306;-80
2022/09/21 00:21:34;;;;;;;14.57;9.25;;;10.20;99.90;;;;;;5052614;28;20669;-81
2022/09/21 00:24:01;;;;;;;13.43;7.53;;;10.20;99.90;;;;;;5057710;28;20651;-80
2022/09/21 00:26:30;;;;;;;12.90;6.93;;;10.30;99.90;;;;;;5063560;28;20267;-80
2022/09/21 00:28:59;;;;;;;15.10;8.15;;;10.30;99.90;;;;;;5048717;28;20208;-81
2022/09/21 00:31:26;;;;;;;12.43;7.80;;;10.30;99.90;;;;;;5035859;28;20264;-79
2022/09/21 00:33:55;;;;;;;14.50;7.78;;;10.20;99.90;;;;;;5040087;28;20228;-81
2022/09/21 00:36:24;;;;;;;12.50;8.82;;;10.10;99.90;;;;;;5035705;28;20542;-79
2022/09/21 00:38:53;;;;;;;10.70;7.50;;;10.10;99.90;;;;;;5052332;28;20396;-82
2022/09/21 00:41:21;;;;;;;11.35;7.15;;;10.10;99.90;;;;;;5045292;28;20199;-81
2022/09/21 00:44:10;;;;;;;15.25;8.73;;;10.10;99.90;;;;;;5047435;28;20192;-82
2022/09/21 00:46:40;;;;;;;10.63;9.43;;;10.00;99.90;;;;;;5051452;28;20278;-80
2022/09/21 00:49:07;;;;;;;14.02;9.52;;;9.90;99.90;;;;;;5051540;28;20286;-80
2022/09/21 00:51:35;;;;;;;15.25;8.13;;;9.90;99.90;;;;;;5040511;28;20286;-80
2022/09/21 00:54:05;;;;;;;11.52;8.82;;;9.90;99.90;;;;;;5036077;28;20196;-81
2022/09/21 00:56:33;;;;;;;11.10;7.97;;;10.10;99.90;;;;;;5052591;28;20222;-80
2022/09/21 00:59:03;;;;;;;13.90;9.05;;;9.80;99.90;;;;;;5046914;28;20231;-81
2022/09/21 01:01:30;;;;;;;12.07;8.30;;;9.80;99.90;;;;;;5045009;28;20298;-81
2022/09/21 01:03:57;;;;;;;19.38;8.73;;;9.80;99.90;;;;;;5043365;28;20335;-80
2022/09/21 01:06:25;;;;;;;12.68;8.00;;;9.80;99.90;;;;;;5052156;28;20240;-82
2022/09/21 01:08:57;;;;;;;14.20;8.93;;;9.80;99.90;;;;;;5048136;28;20236;-82
2022/09/21 01:11:35;;;;;;;14.20;7.30;;;9.80;99.90;;;;;;5044294;28;20663;-81
2022/09/21 01:14:19;;;;;;;10.55;7.50;;;9.80;99.90;;;;;;5045751;28;20200;-81
2022/09/21 01:16:54;;;;;;;10.35;6.90;;;9.80;99.90;;;;;;5023933;28;20318;-80
2022/09/21 01:19:45;;;;;;;15.13;7.22;;;9.80;99.90;;;;;;5048047;28;20229;-81
2022/09/21 01:22:19;;;;;;;9.82;6.82;;;9.90;99.90;;;;;;5033967;28;20287;-81
2022/09/21 01:24:59;;;;;;;14.15;7.35;;;9.90;99.90;;;;;;5035450;28;20200;-81
2022/09/21 01:27:44;;;;;;;11.40;8.35;;;9.90;99.90;;;;;;5043242;28;20230;-81
2022/09/21 01:30:15;;;;;;;11.98;7.82;;;9.80;99.90;;;;;;5047579;28;20278;-81
2022/09/21 01:32:47;;;;;;;12.85;8.43;;;9.80;99.90;;;;;;5053160;28;20195;-81
2022/09/21 01:35:17;;;;;;;13.40;8.95;;;9.80;99.90;;;;;;5045872;28;20204;-79
2022/09/21 01:37:47;;;;;;;12.70;7.72;;;9.70;99.90;;;;;;5053834;28;20699;-81
2022/09/21 01:40:19;;;;;;;10.98;6.68;;;9.70;99.90;;;;;;5039360;28;20583;-81
2022/09/21 01:42:49;;;;;;;17.48;7.63;;;9.70;99.90;;;;;;5048213;28;20208;-80
2022/09/21 01:45:24;;;;;;;11.20;7.13;;;9.70;99.90;;;;;;5050702;28;20253;-80
2022/09/21 01:47:51;;;;;;;15.98;9.48;;;9.70;99.90;;;;;;5048045;28;20678;-81
2022/09/21 01:50:20;;;;;;;10.95;6.88;;;9.60;99.90;;;;;;5050582;28;20672;-82
2022/09/21 01:52:52;;;;;;;10.90;6.47;;;9.70;99.90;;;;;;5047397;28;20794;-80
2022/09/21 01:55:25;;;;;;;14.88;7.25;;;9.70;99.90;;;;;;5055447;28;20209;-79
2022/09/21 01:57:56;;;;;;;10.85;7.25;;;9.80;99.90;;;;;;5051577;28;20219;-80
2022/09/21 02:00:25;;;;;;;11.55;7.45;;;9.80;99.90;;;;;;5048533;28;20232;-79
2022/09/21 02:02:57;;;;;;;14.43;6.25;;;9.70;99.90;;;;;;5043413;28;20258;-80
2022/09/21 02:05:26;;;;;;;7.32;6.20;;;9.70;99.90;;;;;;5052679;28;20211;-81
2022/09/21 02:07:54;;;;;;;8.27;5.82;;;9.80;99.90;;;;;;5050690;28;20228;-81
2022/09/21 02:10:27;;;;;;;8.95;6.68;;;9.80;99.90;;;;;;5064912;28;20196;-81
2022/09/21 02:13:00;;;;;;;10.05;6.80;;;9.80;99.90;;;;;;5066061;28;20220;-81
2022/09/21 02:15:46;;;;;;;9.52;7.05;;;9.60;99.90;;;;;;5048977;28;20212;-80
2022/09/21 02:18:27;;;;;;;9.25;6.60;;;9.70;99.90;;;;;;5036920;28;20235;-82
2022/09/21 02:20:58;;;;;;;10.15;7.82;;;9.60;99.90;;;;;;5058883;28;20276;-81
2022/09/21 02:23:32;;;;;;;10.48;7.60;;;9.50;99.90;;;;;;5069480;28;20276;-81
2022/09/21 02:26:05;;;;;;;13.68;7.18;;;9.50;99.90;;;;;;5069862;28;20243;-81
2022/09/21 02:28:38;;;;;;;7.47;6.45;;;9.50;99.90;;;;;;5048049;28;20224;-81
2022/09/21 02:31:13;;;;;;;20.05;6.80;;;9.50;99.90;;;;;;5059840;28;20283;-81
2022/09/21 02:33:51;;;;;;;10.73;7.30;;;9.50;99.90;;;;;;5031837;28;20211;-81
2022/09/21 02:36:29;;;;;;;9.77;7.05;;;9.50;99.90;;;;;;5037460;28;20637;-81
2022/09/21 02:39:05;;;;;;;11.05;6.60;;;9.50;99.90;;;;;;5033645;28;20212;-80
2022/09/21 02:41:41;;;;;;;9.27;5.50;;;9.50;99.90;;;;;;5044839;28;20196;-80
2022/09/21 02:44:12;;;;;;;13.45;7.35;;;9.40;99.90;;;;;;5040829;28;20318;-80
2022/09/21 02:46:45;;;;;;;18.88;6.90;;;9.50;99.90;;;;;;5044884;28;20286;-80
2022/09/21 02:49:18;;;;;;;5.80;5.20;;;9.50;99.90;;;;;;5044661;28;20279;-80
2022/09/21 02:51:48;;;;;;;12.52;7.60;;;9.50;99.90;;;;;;5050839;28;20287;-80
2022/09/21 02:54:18;;;;;;;14.88;7.10;;;9.50;99.90;;;;;;5042132;28;20204;-79
2022/09/21 02:56:47;;;;;;;10.07;5.95;;;9.50;99.90;;;;;;5040802;28;20310;-80
2022/09/21 02:59:16;;;;;;;10.23;6.30;;;9.60;99.90;;;;;;5038524;28;20216;-78
2022/09/21 03:01:44;;;;;;;11.43;6.38;;;9.50;99.90;;;;;;5046974;28;20673;-80
2022/09/21 03:04:12;;;;;;;11.38;7.82;;;9.50;99.90;;;;;;5047514;28;20231;-79
2022/09/21 03:06:40;;;;;;;15.55;6.55;;;9.40;99.90;;;;;;5050188;28;20231;-79
2022/09/21 03:09:07;;;;;;;7.50;6.30;;;9.40;99.90;;;;;;5047517;28;20291;-80
2022/09/21 03:11:34;;;;;;;15.45;7.35;;;9.40;99.90;;;;;;5050425;28;20237;-78
2022/09/21 03:14:04;;;;;;;11.45;5.40;;;9.40;99.90;;;;;;5046957;28;20250;-79
2022/09/21 03:16:31;;;;;;;10.40;8.05;;;9.40;99.90;;;;;;5039295;28;20242;-80
2022/09/21 03:18:59;;;;;;;10.00;8.00;;;9.50;99.90;;;;;;5054070;28;20605;-80
2022/09/21 03:21:26;;;;;;;9.48;6.72;;;9.40;99.90;;;;;;5047294;28;20593;-80
2022/09/21 03:23:54;;;;;;;9.43;6.10;;;9.40;99.90;;;;;;5043918;28;20200;-80
2022/09/21 03:26:21;;;;;;;14.77;6.97;;;9.40;99.90;;;;;;5043642;28;20722;-81
2022/09/21 03:28:48;;;;;;;10.70;6.25;;;9.40;99.90;;;;;;5049696;28;20226;-80
2022/09/21 03:31:17;;;;;;;15.05;7.78;;;9.20;99.90;;;;;;5047403;28;20207;-81
2022/09/21 03:33:43;;;;;;;16.58;7.53;;;9.20;99.90;;;;;;5052875;28;20291;-80
2022/09/21 03:36:13;;;;;;;10.95;6.70;;;9.10;99.90;;;;;;5049964;28;20261;-81
2022/09/21 03:38:41;;;;;;;15.50;7.60;;;9.10;99.90;;;;;;5047259;28;20282;-81
2022/09/21 03:41:15;;;;;;;9.13;6.43;;;9.10;99.90;;;;;;5049567;28;20294;-81
2022/09/21 03:43:42;;;;;;;11.65;7.60;;;9.10;99.90;;;;;;5053771;28;20562;-81
2022/09/21 03:46:09;;;;;;;16.50;7.63;;;9.00;99.90;;;;;;5041660;28;20287;-81
2022/09/21 03:48:36;;;;;;;12.60;8.30;;;9.00;99.90;;;;;;5049008;28;20311;-82
2022/09/21 03:51:04;;;;;;;12.35;7.22;;;8.90;99.90;;;;;;5048039;28;20204;-81
2022/09/21 03:53:32;;;;;;;18.88;8.38;;;9.00;99.90;;;;;;5040685;28;20247;-81
2022/09/21 03:55:59;;;;;;;11.77;7.45;;;9.00;99.90;;;;;;5046737;28;20274;-81
2022/09/21 03:58:26;;;;;;;8.70;7.63;;;9.00;99.90;;;;;;5057213;28;20243;-80
2022/09/21 04:00:53;;;;;;;14.02;8.32;;;9.00;99.90;;;;;;5065830;28;20251;-80
2022/09/21 04:03:21;;;;;;;11.40;7.93;;;9.10;99.90;;;;;;5045589;28;20716;-79
2022/09/21 04:05:48;;;;;;;11.60;8.18;;;8.90;99.90;;;;;;5043681;28;20287;-81
2022/09/21 04:08:15;;;;;;;8.75;7.30;;;8.90;99.90;;;;;;5048051;28;20227;-79
2022/09/21 04:10:43;;;;;;;12.13;7.60;;;8.90;99.90;;;;;;5040976;28;20226;-82
2022/09/21 04:13:11;;;;;;;8.15;6.43;;;8.90;99.90;;;;;;5037420;28;20672;-81
2022/09/21 04:15:38;;;;;;;14.77;8.10;;;9.00;99.90;;;;;;5045097;28;20206;-81
2022/09/21 04:18:05;;;;;;;11.80;7.95;;;9.00;99.90;;;;;;5052013;28;20231;-81
2022/09/21 04:20:33;;;;;;;15.50;8.68;;;8.90;99.90;;;;;;5043138;28;20207;-79
2022/09/21 04:23:00;;;;;;;11.10;9.00;;;8.90;99.90;;;;;;5045642;28;20232;-80
2022/09/21 04:25:27;;;;;;;11.00;7.25;;;8.90;99.90;;;;;;5047164;28;20278;-80
2022/09/21 04:27:57;;;;;;;13.25;7.65;;;8.90;99.90;;;;;;5051880;28;20226;-80
2022/09/21 04:30:24;;;;;;;17.05;7.50;;;8.90;99.90;;;;;;5052056;28;20667;-81
2022/09/21 04:32:51;;;;;;;9.80;7.53;;;9.00;99.90;;;;;;5045142;28;20204;-82
2022/09/21 04:35:17;;;;;;;14.40;9.30;;;9.00;99.90;;;;;;5040057;28;20746;-81
2022/09/21 04:37:44;;;;;;;15.77;8.10;;;8.90;99.90;;;;;;5041769;28;20302;-78
2022/09/21 04:40:12;;;;;;;14.15;10.30;;;8.90;99.90;;;;;;5041164;28;20231;-80
2022/09/21 04:42:39;;;;;;;18.20;10.65;;;8.80;99.90;;;;;;5043405;28;20333;-80
2022/09/21 04:45:08;;;;;;;18.23;9.30;;;8.80;99.90;;;;;;5050700;28;20234;-80
2022/09/21 04:47:37;;;;;;;12.38;6.88;;;8.80;99.90;;;;;;5044177;28;20302;-82
2022/09/21 04:50:04;;;;;;;11.98;8.27;;;8.80;99.90;;;;;;5040900;28;20283;-80
2022/09/21 04:52:31;;;;;;;14.57;8.73;;;8.80;99.90;;;;;;5043109;28;20291;-80
2022/09/21 04:54:58;;;;;;;19.58;9.65;;;8.70;99.90;;;;;;5038289;28;20200;-80
2022/09/21 04:57:25;;;;;;;19.52;9.43;;;8.70;99.90;;;;;;5034241;28;20220;-80
2022/09/21 04:59:54;;;;;;;15.95;9.32;;;8.60;99.90;;;;;;5034221;28;20212;-80
2022/09/21 05:02:22;;;;;;;15.35;8.05;;;8.60;99.90;;;;;;5050065;28;20216;-80
2022/09/21 05:04:53;;;;;;;13.95;10.60;;;8.60;99.90;;;;;;5040611;28;20234;-81
2022/09/21 05:07:20;;;;;;;13.75;8.93;;;8.60;99.90;;;;;;5057761;28;20258;-82
2022/09/21 05:10:03;;;;;;;11.63;8.75;;;8.60;99.90;;;;;;5062676;28;20215;-81
2022/09/21 05:12:43;;;;;;;41.15;9.75;;;8.60;99.90;;;;;;5059468;28;20259;-81
2022/09/21 05:15:13;;;;;;;16.38;10.10;;;8.60;99.90;;;;;;5056513;28;20195;-80
2022/09/21 05:17:41;;;;;;;15.52;8.93;;;8.70;99.90;;;;;;5066054;28;20289;-77
2022/09/21 05:23:31;;;;;;;15.60;9.95;;;8.60;99.90;;;;;;5044733;28;20194;-77
2022/09/21 05:26:05;;;;;;;12.15;8.90;;;8.60;99.90;;;;;;5057415;28;20655;-77
2022/09/21 05:28:33;;;;;;;13.27;7.78;;;8.70;99.90;;;;;;5045431;28;20308;-78
2022/09/21 05:31:22;;;;;;;11.35;9.25;;;8.70;99.90;;;;;;5056365;28;20649;-76
2022/09/21 05:34:04;;;;;;;12.27;8.50;;;8.80;99.90;;;;;;5054789;28;20212;-76
2022/09/21 05:36:58;;;;;;;12.32;8.40;;;8.80;99.90;;;;;;5047770;28;20311;-77
2022/09/21 05:39:26;;;;;;;10.90;7.28;;;8.90;99.90;;;;;;5042734;28;20322;-78
2022/09/21 05:41:53;;;;;;;14.63;8.80;;;8.80;99.90;;;;;;5042238;28;20222;-76
2022/09/21 05:44:21;;;;;;;16.05;10.35;;;8.90;99.90;;;;;;5061756;28;20212;-76
2022/09/21 05:46:55;;;;;;;13.32;9.18;;;8.80;99.90;;;;;;5054235;28;20671;-76
2022/09/21 05:49:33;;;;;;;14.75;9.43;;;8.80;99.90;;;;;;5056336;28;20289;-77
2022/09/21 05:52:06;;;;;;;16.67;9.52;;;8.80;99.90;;;;;;5025855;28;20247;-77
2022/09/21 05:54:45;;;;;;;14.57;9.63;;;8.70;99.90;;;;;;5044457;28;20204;-77
2022/09/21 05:57:19;;;;;;;19.55;10.60;;;8.70;99.90;;;;;;5050905;28;20302;-75
2022/09/21 05:59:57;;;;;;;9.95;8.00;;;8.70;99.90;;;;;;5043273;28;20291;-76
2022/09/21 06:02:36;;;;;;;11.90;7.90;;;8.80;99.90;;;;;;5027962;28;20204;-74
2022/09/21 06:05:11;;;;;;;10.63;8.98;;;8.90;99.90;;;;;;5043707;28;20209;-73
2022/09/21 06:07:38;;;;;;;18.13;9.40;;;9.00;99.90;;;;;;5048683;28;20306;-74
2022/09/21 06:10:06;;;;;;;14.27;8.32;;;9.20;99.90;;;;;;5055533;28;20196;-72
2022/09/21 06:12:33;;;;;;;11.27;8.80;;;9.50;99.90;;;;;;5041903;28;20283;-73
2022/09/21 06:15:00;;;;;;;12.20;7.53;;;9.70;99.90;;;;;;5046863;28;20618;-73
2022/09/21 06:17:27;;;;;;;14.43;10.05;;;9.90;99.90;;;;;;5046680;28;20314;-74
2022/09/21 06:19:54;;;;;;;12.35;9.80;;;10.00;99.90;;;;;;5043021;28;20282;-74
2022/09/21 06:22:22;;;;;;;10.88;6.97;;;10.40;99.90;;;;;;5045679;28;20317;-76
2022/09/21 06:24:49;;;;;;;8.10;5.97;;;11.20;99.90;;;;;;5046641;28;20207;-73
2022/09/21 06:27:16;;;;;;;7.00;6.30;;;12.10;99.90;;;;;;5045143;28;20275;-74
2022/09/21 06:29:43;;;;;;;12.63;8.10;;;12.80;99.90;;;;;;5039901;28;20200;-74
2022/09/21 06:32:11;;;;;;;15.57;6.78;;;13.80;99.90;;;;;;5045933;28;20284;-75
2022/09/21 06:34:38;;;;;;;10.73;6.25;;;14.70;99.90;;;;;;5049665;28;20590;-74
2022/09/21 06:37:05;;;;;;;9.40;6.40;;;15.80;99.90;;;;;;5047491;28;20305;-74
2022/09/21 06:39:34;;;;;;;7.93;6.37;;;16.50;99.90;;;;;;5049545;28;20504;-75
2022/09/21 06:42:01;;;;;;;9.90;5.37;;;16.90;99.90;;;;;;5046961;28;20546;-74
2022/09/21 06:44:29;;;;;;;9.33;5.00;;;17.90;99.90;;;;;;5047284;28;20453;-74
2022/09/21 06:46:56;;;;;;;8.00;4.77;;;18.90;99.90;;;;;;5041573;28;20837;-73
2022/09/21 06:49:23;;;;;;;9.80;5.47;;;19.60;98.50;;;;;;5050431;28;20456;-74
2022/09/21 06:51:50;;;;;;;8.70;5.00;;;19.80;95.60;;;;;;5041039;28;20479;-74
2022/09/21 06:54:17;;;;;;;6.80;4.63;;;19.90;95.10;;;;;;5038413;28;20442;-74
2022/09/21 06:56:45;;;;;;;8.30;5.10;;;20.70;94.40;;;;;;5044990;28;20832;-75
2022/09/21 06:59:15;;;;;;;9.40;4.10;;;21.30;92.80;;;;;;5046420;28;20469;-75
2022/09/21 07:01:43;;;;;;;16.93;7.07;;;21.70;91.70;;;;;;5038895;28;20544;-72
2022/09/21 07:04:11;;;;;;;5.80;4.47;;;20.90;91.80;;;;;;5040765;28;20876;-73
2022/09/21 07:06:38;;;;;;;10.10;4.90;;;21.40;92.00;;;;;;5039852;28;20753;-74
2022/09/21 07:09:04;;;;;;;7.90;4.67;;;21.80;91.10;;;;;;5038063;28;20528;-73
2022/09/21 07:11:32;;;;;;;8.30;4.90;;;21.80;90.10;;;;;;5038103;28;20608;-74
2022/09/21 07:14:02;;;;;;;11.60;5.20;;;22.10;90.30;;;;;;5040790;28;20545;-74
2022/09/21 07:16:30;;;;;;;7.93;5.00;;;22.70;89.10;;;;;;5037427;28;20527;-73
2022/09/21 07:18:57;;;;;;;6.13;4.10;;;23.50;86.80;;;;;;5043980;28;20474;-74
2022/09/21 07:21:23;;;;;;;6.33;4.10;;;23.60;84.80;;;;;;5034152;28;20540;-73
2022/09/21 07:23:51;;;;;;;11.30;5.23;;;23.50;84.30;;;;;;5051309;28;20464;-71
2022/09/21 07:26:17;;;;;;;8.30;4.53;;;23.70;83.90;;;;;;5035784;28;20439;-72
2022/09/21 07:28:44;;;;;;;5.93;3.50;;;23.90;82.60;;;;;;5037521;28;20462;-73
2022/09/21 07:31:14;;;;;;;6.37;4.00;;;24.00;83.10;;;;;;5061214;28;20980;-73
2022/09/21 07:33:42;;;;;;;7.30;4.13;;;24.30;82.90;;;;;;5047387;28;20578;-73
2022/09/21 07:36:11;;;;;;;9.07;4.50;;;24.80;80.80;;;;;;5049531;28;20450;-72
2022/09/21 07:38:39;;;;;;;12.13;4.00;;;25.20;79.90;;;;;;5041938;28;20996;-72
2022/09/21 07:41:06;;;;;;;5.70;4.00;;;25.10;78.60;;;;;;5037567;28;20507;-74
2022/09/21 07:43:33;;;;;;;11.97;5.00;;;25.30;78.30;;;;;;5043069;28;20438;-72
2022/09/21 07:46:01;;;;;;;7.40;3.70;;;25.30;77.40;;;;;;5041760;28;20535;-72
2022/09/21 07:48:30;;;;;;;9.63;3.03;;;25.40;77.00;;;;;;5040323;28;20585;-74
2022/09/21 07:51:03;;;;;;;13.33;3.87;;;25.00;76.10;;;;;;5045779;28;20448;-70
2022/09/21 07:53:31;;;;;;;6.87;2.93;;;25.20;76.10;;;;;;5038360;28;20458;-73
2022/09/21 07:56:02;;;;;;;6.20;2.73;;;25.30;75.60;;;;;;5050841;28;20483;-70
2022/09/21 08:01:13;;;;;;;6.50;3.40;;;25.60;75.30;;;;;;5043103;28;20569;-74
2022/09/21 08:03:41;;;;;;;7.70;3.63;;;25.70;74.20;;;;;;5036286;28;20453;-71
2022/09/21 08:06:09;;;;;;;9.00;2.80;;;25.30;74.50;;;;;;5035445;28;20593;-72
2022/09/21 08:08:36;;;;;;;7.43;3.10;;;25.50;75.10;;;;;;5039958;28;20506;-70
2022/09/21 08:11:05;;;;;;;7.67;2.20;;;25.70;74.20;;;;;;5048831;28;20445;-72
2022/09/21 08:13:32;;;;;;;6.70;2.60;;;25.60;74.10;;;;;;5055100;28;20453;-72
2022/09/21 08:16:00;;;;;;;3.70;2.00;;;25.50;73.50;;;;;;5053621;28;20470;-71
2022/09/21 08:18:28;;;;;;;5.80;2.40;;;24.70;74.90;;;;;;5053010;28;20469;-75
2022/09/21 08:20:58;;;;;;;9.33;2.50;;;25.00;75.70;;;;;;5049470;28;21035;-73
2022/09/21 08:23:29;;;;;;;5.20;2.30;;;25.10;74.50;;;;;;5035736;28;20790;-72
2022/09/21 08:26:00;;;;;;;9.50;2.20;;;24.90;74.20;;;;;;5041491;28;20450;-74
2022/09/21 08:28:27;;;;;;;8.23;2.53;;;24.70;75.00;;;;;;5043428;28;20593;-74
2022/09/21 08:30:58;;;;;;;6.13;2.37;;;25.10;75.30;;;;;;5041926;28;20522;-75
2022/09/21 08:33:26;;;;;;;7.77;3.50;;;25.40;74.70;;;;;;5036355;28;20779;-72
2022/09/21 08:35:54;;;;;;;6.47;2.70;;;26.00;74.30;;;;;;5038300;28;20848;-72
2022/09/21 08:38:23;;;;;;;6.87;2.60;;;26.20;73.50;;;;;;5043138;28;21108;-76
2022/09/21 08:40:51;;;;;;;9.20;3.03;;;26.50;72.60;;;;;;5044217;28;20821;-74
2022/09/21 08:43:26;;;;;;;9.85;2.92;;;26.20;72.40;;;;;;5036964;28;20473;-76
2022/09/21 08:45:54;;;;;;;7.00;2.20;;;25.70;73.40;;;;;;5035940;28;20661;-75
2022/09/21 08:48:23;;;;;;;7.07;2.17;;;24.90;74.90;;;;;;5037709;28;20854;-74
2022/09/21 08:50:53;;;;;;;8.53;2.67;;;25.20;75.60;;;;;;5043996;28;20447;-74
2022/09/21 08:53:30;;;;;;;13.00;2.80;;;26.10;75.00;;;;;;5046692;28;20442;-72
2022/09/21 08:55:58;;;;;;;4.93;2.60;;;26.40;73.40;;;;;;5050066;28;20443;-73
2022/09/21 08:58:26;;;;;;;5.90;2.53;;;26.30;73.50;;;;;;5040956;28;20502;-72
2022/09/21 09:01:14;;;;;;;10.90;2.43;;;26.20;72.20;;;;;;5046105;28;20503;-71
2022/09/21 09:03:58;;;;;;;7.10;2.73;;;26.20;72.90;;;;;;5039551;28;20633;-72
2022/09/21 09:06:34;;;;;;;7.13;2.40;;;26.60;72.30;;;;;;5027256;28;20441;-73
2022/09/21 09:09:24;;;;;;;9.90;2.77;;;26.20;72.20;;;;;;5036867;28;20879;-71
2022/09/21 09:12:04;;;;;;;4.77;2.37;;;26.60;72.60;;;;;;5046093;28;20534;-73
2022/09/21 09:14:51;;;;;;;7.27;2.80;;;26.40;72.40;;;;;;5044965;28;20441;-74
2022/09/21 09:17:33;;;;;;;5.60;2.10;;;26.60;72.60;;;;;;5044209;28;20458;-76
2022/09/21 09:20:05;;;;;;;8.87;2.77;;;26.90;72.80;;;;;;5058192;28;20434;-72
2022/09/21 09:22:38;;;;;;;5.77;2.00;;;27.20;72.00;;;;;;5053592;28;20488;-73
2022/09/21 09:25:17;;;;;;;7.33;2.87;;;26.90;70.60;;;;;;5039911;28;20447;-73
2022/09/21 09:27:47;;;;;;;8.02;3.28;;;26.90;70.50;;;;;;5036350;28;20866;-74
2022/09/21 09:30:17;;;;;;;5.53;2.50;;;26.90;72.30;;;;;;5048353;28;20287;-75
2022/09/21 09:32:53;;;;;;;4.17;2.30;;;27.30;71.90;;;;;;5039141;28;20535;-75
2022/09/21 09:35:26;;;;;;;5.80;2.63;;;27.30;70.50;;;;;;5048091;28;20446;-75
2022/09/21 09:37:58;;;;;;;5.37;2.23;;;27.30;69.70;;;;;;5034242;28;20470;-76
2022/09/21 09:40:43;;;;;;;3.50;1.90;;;26.90;69.80;;;;;;5047490;28;20512;-73
2022/09/21 09:43:18;;;;;;;5.30;2.07;;;26.40;70.40;;;;;;5043184;28;20485;-72
2022/09/21 09:45:56;;;;;;;6.30;2.80;;;26.10;70.00;;;;;;5043059;28;20481;-73
2022/09/21 09:48:46;;;;;;;7.20;2.40;;;25.90;71.30;;;;;;5023243;28;20477;-73
2022/09/21 09:51:13;;;;;;;7.73;2.10;;;25.60;72.10;;;;;;5021827;28;20450;-72
2022/09/21 09:53:40;;;;;;;6.40;1.90;;;25.40;73.70;;;;;;5041861;28;20770;-73
2022/09/21 09:56:13;;;;;;;6.63;1.60;;;25.60;73.50;;;;;;5041753;28;20450;-71
2022/09/21 09:58:46;;;;;;;4.77;2.10;;;24.80;72.10;;;;;;5039313;28;20466;-73
2022/09/21 10:01:38;;;;;;;5.13;3.20;;;25.00;73.80;;;;;;5047345;28;20488;-71
2022/09/21 10:04:09;;;;;;;4.67;2.17;;;25.20;73.30;;;;;;5045485;28;20574;-72
2022/09/21 10:06:36;;;;;;;4.07;1.60;;;25.10;73.00;;;;;;5044611;28;20450;-71
2022/09/21 10:09:20;;;;;;;3.20;1.40;;;25.40;72.70;;;;;;5045579;28;20889;-73
2022/09/21 10:11:48;;;;;;;3.67;1.87;;;25.20;73.10;;;;;;5041901;28;20435;-75
2022/09/21 10:14:20;;;;;;;8.43;1.90;;;25.40;72.70;;;;;;5050221;28;20789;-75
2022/09/21 10:16:51;;;;;;;2.90;1.20;;;25.80;71.80;;;;;;5045779;28;20471;-75
2022/09/21 10:19:22;;;;;;;6.17;2.10;;;25.90;69.70;;;;;;5044421;28;20451;-75
2022/09/21 10:21:55;;;;;;;7.30;2.00;;;25.60;70.20;;;;;;5047323;28;21023;-73
2022/09/21 10:24:25;;;;;;;9.50;1.90;;;25.40;69.90;;;;;;5043219;28;20486;-74
2022/09/21 10:26:55;;;;;;;6.17;1.60;;;25.20;69.10;;;;;;5043421;28;20996;-75
2022/09/21 10:29:32;;;;;;;6.60;1.63;;;25.30;68.10;;;;;;5036495;28;20447;-74
2022/09/21 10:32:01;;;;;;;7.33;1.30;;;25.10;68.30;;;;;;5044919;28;20538;-73
2022/09/21 10:34:30;;;;;;;3.00;1.57;;;24.40;71.50;;;;;;5035433;28;20454;-74
2022/09/21 10:36:58;;;;;;;5.93;2.43;;;24.00;72.50;;;;;;5039166;28;21059;-74
2022/09/21 10:39:28;;;;;;;6.07;1.50;;;23.60;72.20;;;;;;5036843;28;20451;-74
2022/09/21 10:42:03;;;;;;;12.13;3.10;;;22.70;73.50;;;;;;5037534;28;20490;-72
2022/09/21 10:44:41;;;;;;;5.00;2.50;;;22.10;75.90;;;;;;5020682;28;20497;-72
2022/09/21 10:47:19;;;;;;;8.37;1.20;;;21.30;77.80;;;;;;5038899;28;20924;-74
2022/09/21 10:49:49;;;;;;;4.23;1.30;;;21.40;78.20;;;;;;5034804;28;20533;-73
2022/09/21 10:52:18;;;;;;;3.00;1.23;;;21.20;76.50;;;;;;5038501;28;20434;-76
2022/09/21 10:54:48;;;;;;;7.50;2.00;;;21.00;77.00;;;;;;5040259;28;20949;-73
2022/09/21 10:57:18;;;;;;;5.03;1.60;;;20.90;77.90;;;;;;5038378;28;20562;-76
2022/09/21 10:59:45;;;;;;;4.23;1.40;;;20.90;78.30;;;;;;5041992;28;20578;-76
2022/09/21 11:02:28;;;;;;;4.83;1.43;;;20.80;76.70;;;;;;5048386;28;20517;-72
2022/09/21 11:05:01;;;;;;;3.77;1.40;;;21.00;76.70;;;;;;5060684;28;20510;-74
2022/09/21 11:07:31;;;;;;;4.87;1.43;;;21.20;76.70;;;;;;5056891;28;20477;-76
2022/09/21 11:10:12;;;;;;;5.23;1.50;;;21.10;77.60;;;;;;5055090;28;20503;-72
2022/09/21 11:12:51;;;;;;;2.80;1.20;;;21.20;77.30;;;;;;5040720;28;20473;-74
2022/09/21 11:15:29;;;;;;;5.07;1.37;;;20.90;76.80;;;;;;5058109;28;20435;-73
2022/09/21 11:18:04;;;;;;;10.13;2.40;;;20.90;79.60;;;;;;5038467;28;20564;-72
2022/09/21 11:20:46;;;;;;;2.73;1.07;;;20.60;78.00;;;;;;5042175;28;20529;-73
2022/09/21 11:23:27;;;;;;;3.10;1.07;;;20.60;78.60;;;;;;5044347;28;20595;-74
2022/09/21 11:26:02;;;;;;;2.63;1.60;;;20.40;76.70;;;;;;5041067;28;20791;-74
2022/09/21 11:28:39;;;;;;;5.97;1.40;;;20.00;77.10;;;;;;5024714;28;20565;-76
2022/09/21 11:31:31;;;;;;;4.53;1.60;;;20.00;77.80;;;;;;5031136;28;20442;-74
2022/09/21 11:34:24;;;;;;;3.57;1.70;;;20.10;78.50;;;;;;5033009;28;20454;-75
2022/09/21 11:37:08;;;;;;;7.80;1.13;;;20.10;79.60;;;;;;5027747;28;20548;-73
2022/09/21 11:39:52;;;;;;;2.93;1.00;;;20.00;80.80;;;;;;5022062;28;20467;-78
2022/09/21 11:42:34;;;;;;;9.83;1.97;;;20.10;82.00;;;;;;5025887;28;20577;-75
2022/09/21 11:45:05;;;;;;;4.93;1.50;;;19.90;82.60;;;;;;5042828;28;20449;-76
2022/09/21 11:47:57;;;;;;;5.43;1.70;;;19.90;81.70;;;;;;5046825;28;20468;-76
2022/09/21 11:50:41;;;;;;;8.10;1.90;;;20.00;81.70;;;;;;5048375;28;20508;-75
2022/09/21 11:53:24;;;;;;;8.60;1.53;;;20.10;79.70;;;;;;5043778;28;20474;-75
2022/09/21 11:56:30;;;;;;;3.17;0.80;;;20.10;77.40;;;;;;5050516;28;20446;-75
2022/09/21 11:59:12;;;;;;;6.93;1.30;;;19.90;77.40;;;;;;5046723;28;20558;-75
2022/09/21 12:01:50;;;;;;;2.90;1.33;;;20.00;78.70;;;;;;5020770;28;20962;-74
2022/09/21 12:04:34;;;;;;;2.23;0.90;;;19.80;77.00;;;;;;5023396;28;20526;-75
2022/09/21 12:07:18;;;;;;;3.30;1.37;;;19.70;76.60;;;;;;5028718;28;20472;-74
2022/09/21 12:10:06;;;;;;;5.20;1.50;;;19.50;76.90;;;;;;5037518;28;20506;-75
2022/09/21 12:12:37;;;;;;;4.50;1.83;;;19.80;77.10;;;;;;5042550;28;20455;-75
2022/09/21 12:15:11;;;;;;;5.47;2.33;;;19.80;77.60;;;;;;5042186;28;20532;-75
2022/09/21 12:17:48;;;;;;;3.07;1.20;;;19.80;79.10;;;;;;5046902;28;20470;-75
2022/09/21 12:20:24;;;;;;;4.03;1.23;;;19.90;79.70;;;;;;5043616;28;20502;-74
2022/09/21 12:22:57;;;;;;;3.93;1.00;;;19.80;77.50;;;;;;5030711;28;20569;-76
2022/09/21 12:25:28;;;;;;;3.13;1.07;;;20.00;78.80;;;;;;5040835;28;20447;-74
2022/09/21 12:28:01;;;;;;;5.00;1.20;;;20.00;79.00;;;;;;5047582;28;20524;-76
2022/09/21 12:30:30;;;;;;;2.37;1.00;;;20.20;79.40;;;;;;5039491;28;20993;-76
2022/09/21 12:33:03;;;;;;;2.33;1.20;;;20.00;77.30;;;;;;5039862;28;20448;-75
2022/09/21 12:35:37;;;;;;;4.27;1.20;;;20.00;78.00;;;;;;5041797;28;20438;-74
2022/09/21 12:38:11;;;;;;;13.70;1.57;;;19.80;77.40;;;;;;5034995;28;20658;-73
2022/09/21 12:40:44;;;;;;;3.30;0.90;;;19.60;77.30;;;;;;5038829;28;20809;-75
2022/09/21 12:43:25;;;;;;;3.20;0.97;;;19.80;77.80;;;;;;5026685;28;20481;-75
2022/09/21 12:45:56;;;;;;;2.60;1.60;;;19.60;76.90;;;;;;5035322;28;20817;-76
2022/09/21 12:48:31;;;;;;;3.30;1.20;;;19.50;78.20;;;;;;5040787;28;20493;-74
2022/09/21 12:51:04;;;;;;;5.40;0.97;;;19.60;77.60;;;;;;5049914;28;20537;-75
2022/09/21 12:53:37;;;;;;;6.50;4.23;;;19.60;77.50;;;;;;5054001;28;21887;-74
2022/09/21 12:56:08;;;;;;;4.17;1.20;;;19.80;77.80;;;;;;5049869;28;20503;-74
2022/09/21 12:58:49;;;;;;;4.50;1.00;;;20.00;77.50;;;;;;5060839;28;20481;-76
2022/09/21 13:01:32;;;;;;;2.70;1.17;;;19.90;77.80;;;;;;5046188;28;20435;-76
2022/09/21 13:04:34;;;;;;;1.23;0.80;;;19.70;78.80;;;;;;5034805;28;20477;-73
2022/09/21 13:07:31;;;;;;;6.17;1.50;;;19.60;80.90;;;;;;5030580;28;20470;-76
2022/09/21 13:10:00;;;;;;;7.50;1.63;;;19.20;82.10;;;;;;5043822;28;20465;-75
2022/09/21 13:12:33;;;;;;;4.27;1.10;;;19.00;83.30;;;;;;5038176;28;20543;-75
2022/09/21 13:15:04;;;;;;;3.63;1.20;;;19.00;81.70;;;;;;5042905;28;20453;-75
2022/09/21 13:17:33;;;;;;;3.57;1.17;;;19.00;82.30;;;;;;5046822;28;20477;-75